Time;durP1;ratioP1;P1;durP2;ratioP2;P2;SDS_P1;SDS_P2;PMS_P1;PMS_P2;Temp;Humidity;BMP_temperature;BMP_pressure;BME280_temperature;BME280_humidity;BME280_pressure;Samples;Min_cycle;Max_cycle;Signal;HPM_P1;HPM_P2
2023/12/23 00:01:45;;;;;;;1.58;1.20;;;;;;;;;;5048016;28;20040;-83
2023/12/23 00:04:11;;;;;;;3.50;1.05;;;;;;;;;;5029804;28;20155;-83
2023/12/23 00:06:39;;;;;;;2.35;0.80;;;;;;;;;;5028734;28;20099;-83
2023/12/23 00:09:05;;;;;;;3.88;0.88;;;;;;;;;;5036398;28;20424;-83
2023/12/23 00:11:31;;;;;;;3.75;0.90;;;;;;;;;;5040082;28;20056;-84
2023/12/23 00:13:57;;;;;;;2.17;0.47;;;;;;;;;;5017864;28;20037;-83
2023/12/23 00:16:24;;;;;;;7.30;1.20;;;;;;;;;;5053512;28;20040;-83
2023/12/23 00:18:50;;;;;;;7.07;0.82;;;;;;;;;;5031527;28;20408;-84
2023/12/23 00:21:16;;;;;;;5.70;1.10;;;;;;;;;;5047777;28;20041;-83
2023/12/23 00:23:42;;;;;;;2.70;0.75;;;;;;;;;;5046904;28;20047;-84
2023/12/23 00:26:08;;;;;;;6.20;1.42;;;;;;;;;;5027342;28;20572;-84
2023/12/23 00:28:34;;;;;;;4.63;1.10;;;;;;;;;;5012011;28;20045;-83
2023/12/23 00:31:00;;;;;;;4.43;0.77;;;;;;;;;;5030142;28;20435;-83
2023/12/23 00:33:26;;;;;;;1.23;0.47;;;;;;;;;;5042373;28;20042;-84
2023/12/23 00:35:52;;;;;;;7.03;1.80;;;;;;;;;;5045868;28;20041;-83
2023/12/23 00:38:18;;;;;;;4.15;0.85;;;;;;;;;;5028372;28;20480;-84
2023/12/23 00:40:44;;;;;;;6.05;1.00;;;;;;;;;;5023983;28;20037;-84
2023/12/23 00:43:10;;;;;;;7.20;1.27;;;;;;;;;;5022109;28;20033;-83
2023/12/23 00:45:36;;;;;;;8.02;1.23;;;;;;;;;;5044981;28;20041;-84
2023/12/23 00:48:02;;;;;;;1.70;0.68;;;;;;;;;;5041412;28;20033;-84
2023/12/23 00:50:28;;;;;;;3.50;1.17;;;;;;;;;;5045996;28;20048;-84
2023/12/23 00:52:54;;;;;;;2.17;0.45;;;;;;;;;;5009643;28;20400;-84
2023/12/23 00:55:20;;;;;;;5.88;0.80;;;;;;;;;;5024736;28;20044;-84
2023/12/23 00:57:46;;;;;;;7.78;0.77;;;;;;;;;;5029629;28;20163;-83
2023/12/23 01:00:12;;;;;;;1.27;0.43;;;;;;;;;;5043036;28;20127;-84
2023/12/23 01:02:38;;;;;;;4.57;0.52;;;;;;;;;;5044029;28;20048;-84
2023/12/23 01:05:04;;;;;;;4.35;0.63;;;;;;;;;;5044410;28;20060;-84
2023/12/23 01:07:30;;;;;;;3.65;0.77;;;;;;;;;;5044182;28;20384;-84
2023/12/23 01:09:57;;;;;;;10.85;1.40;;;;;;;;;;5029494;28;20037;-84
2023/12/23 01:12:23;;;;;;;6.15;0.82;;;;;;;;;;5024894;28;20071;-84
2023/12/23 01:14:49;;;;;;;3.80;0.70;;;;;;;;;;5024019;28;20134;-84
2023/12/23 01:17:15;;;;;;;1.92;0.20;;;;;;;;;;5024576;28;20500;-84
2023/12/23 01:19:41;;;;;;;3.17;1.63;;;;;;;;;;5023420;28;20132;-83
2023/12/23 01:22:07;;;;;;;2.92;0.95;;;;;;;;;;5043559;28;20119;-84
2023/12/23 01:24:33;;;;;;;2.90;1.15;;;;;;;;;;5029553;28;20048;-84
2023/12/23 01:26:59;;;;;;;6.93;1.10;;;;;;;;;;5026631;28;20416;-84
2023/12/23 01:29:25;;;;;;;5.00;1.27;;;;;;;;;;5044325;28;20075;-84
2023/12/23 01:31:51;;;;;;;3.45;0.65;;;;;;;;;;5041230;28;20041;-84
2023/12/23 01:34:17;;;;;;;4.88;2.83;;;;;;;;;;5022880;28;20063;-84
2023/12/23 01:36:43;;;;;;;5.85;1.38;;;;;;;;;;5026126;28;20131;-84
2023/12/23 01:39:09;;;;;;;1.48;0.32;;;;;;;;;;5022691;28;20049;-84
2023/12/23 01:41:35;;;;;;;1.75;0.28;;;;;;;;;;5022979;28;20038;-84
2023/12/23 01:44:01;;;;;;;3.60;1.10;;;;;;;;;;5025807;28;20083;-84
2023/12/23 01:46:27;;;;;;;5.10;1.08;;;;;;;;;;5008439;28;20071;-84
2023/12/23 01:48:53;;;;;;;7.88;1.10;;;;;;;;;;5021748;28;20044;-83
2023/12/23 01:51:19;;;;;;;8.07;0.88;;;;;;;;;;5027109;28;20045;-84
2023/12/23 01:53:45;;;;;;;2.40;0.40;;;;;;;;;;5044991;28;20037;-83
2023/12/23 01:56:12;;;;;;;8.10;0.82;;;;;;;;;;5043172;28;20057;-83
2023/12/23 01:58:38;;;;;;;6.30;0.65;;;;;;;;;;5025412;28;20056;-84
2023/12/23 02:01:04;;;;;;;5.15;1.00;;;;;;;;;;5023177;28;20492;-83
2023/12/23 02:03:31;;;;;;;3.72;0.65;;;;;;;;;;5025537;28;20055;-84
2023/12/23 02:05:58;;;;;;;6.65;1.38;;;;;;;;;;5024345;28;20080;-84
2023/12/23 02:08:24;;;;;;;3.08;0.77;;;;;;;;;;5025818;28;20052;-83
2023/12/23 02:10:54;;;;;;;1.50;0.40;;;;;;;;;;5042085;28;20041;-83
2023/12/23 02:13:25;;;;;;;3.97;1.02;;;;;;;;;;5028678;28;20049;-83
2023/12/23 02:15:52;;;;;;;3.30;0.65;;;;;;;;;;5028392;28;20142;-84
2023/12/23 02:18:21;;;;;;;5.50;1.27;;;;;;;;;;5050565;28;20037;-84
2023/12/23 02:20:51;;;;;;;5.47;1.00;;;;;;;;;;5031709;28;20037;-84
2023/12/23 02:23:20;;;;;;;4.90;1.30;;;;;;;;;;5051731;28;20408;-84
2023/12/23 02:25:50;;;;;;;2.70;0.80;;;;;;;;;;5027884;28;20102;-84
2023/12/23 02:28:18;;;;;;;3.80;0.60;;;;;;;;;;5043924;28;20400;-84
2023/12/23 02:30:45;;;;;;;1.95;0.55;;;;;;;;;;5042103;28;20377;-83
2023/12/23 02:33:11;;;;;;;1.45;0.60;;;;;;;;;;5042953;28;20063;-83
2023/12/23 02:35:37;;;;;;;7.90;0.90;;;;;;;;;;5042971;28;20484;-83
2023/12/23 02:38:03;;;;;;;2.80;0.57;;;;;;;;;;5009166;28;20530;-83
2023/12/23 02:40:29;;;;;;;3.83;0.55;;;;;;;;;;5043093;28;20461;-83
2023/12/23 02:42:55;;;;;;;2.53;0.40;;;;;;;;;;5040495;28;20511;-83
2023/12/23 02:45:21;;;;;;;4.60;0.68;;;;;;;;;;5041763;28;20041;-83
2023/12/23 02:47:48;;;;;;;3.85;0.88;;;;;;;;;;5023593;28;20037;-84
2023/12/23 02:50:14;;;;;;;2.15;0.55;;;;;;;;;;5041998;28;20029;-84
2023/12/23 02:52:40;;;;;;;2.65;0.80;;;;;;;;;;5022713;28;20040;-83
2023/12/23 02:55:06;;;;;;;3.50;0.68;;;;;;;;;;5025436;28;20036;-83
2023/12/23 02:57:32;;;;;;;6.95;0.40;;;;;;;;;;5026095;28;20060;-83
2023/12/23 02:59:58;;;;;;;3.35;0.82;;;;;;;;;;5026234;28;20052;-84
2023/12/23 03:02:24;;;;;;;2.60;0.52;;;;;;;;;;5043762;28;20033;-84
2023/12/23 03:04:50;;;;;;;7.57;1.23;;;;;;;;;;5022248;28;20041;-83
2023/12/23 03:07:16;;;;;;;1.60;0.30;;;;;;;;;;5026148;28;20041;-83
2023/12/23 03:09:42;;;;;;;2.75;0.50;;;;;;;;;;5039664;28;20040;-83
2023/12/23 03:12:08;;;;;;;3.95;0.60;;;;;;;;;;5039033;28;20053;-84
2023/12/23 03:14:34;;;;;;;4.75;0.47;;;;;;;;;;5042506;28;20120;-83
2023/12/23 03:17:00;;;;;;;1.98;0.15;;;;;;;;;;5041814;28;20109;-83
2023/12/23 03:19:27;;;;;;;4.35;0.90;;;;;;;;;;5041573;28;20033;-83
2023/12/23 03:21:53;;;;;;;2.88;1.17;;;;;;;;;;5022829;28;20049;-83
2023/12/23 03:24:19;;;;;;;0.22;0.22;;;;;;;;;;5044991;28;20110;-83
2023/12/23 03:26:45;;;;;;;4.03;0.30;;;;;;;;;;5024276;28;20036;-83
2023/12/23 03:29:11;;;;;;;2.17;0.40;;;;;;;;;;5039408;28;20041;-83
2023/12/23 03:31:37;;;;;;;3.38;0.80;;;;;;;;;;5043502;28;20084;-83
2023/12/23 03:34:03;;;;;;;0.90;0.43;;;;;;;;;;5021890;28;20053;-83
2023/12/23 03:36:29;;;;;;;1.98;0.40;;;;;;;;;;5026174;28;20099;-83
2023/12/23 03:38:55;;;;;;;6.38;0.80;;;;;;;;;;5040074;28;20130;-83
2023/12/23 03:41:22;;;;;;;3.55;0.73;;;;;;;;;;5043278;28;20044;-83
2023/12/23 03:43:48;;;;;;;1.13;0.68;;;;;;;;;;5039707;28;20065;-83
2023/12/23 03:46:14;;;;;;;6.72;0.50;;;;;;;;;;5044046;28;20071;-82
2023/12/23 03:48:40;;;;;;;5.28;0.65;;;;;;;;;;5024299;28;20057;-82
2023/12/23 03:51:07;;;;;;;4.60;0.30;;;;;;;;;;5043522;28;20053;-82
2023/12/23 03:53:33;;;;;;;3.63;0.32;;;;;;;;;;5026769;28;20043;-82
2023/12/23 03:55:59;;;;;;;2.13;0.60;;;;;;;;;;5020495;28;20046;-82
2023/12/23 03:58:25;;;;;;;1.92;0.43;;;;;;;;;;5041524;28;20405;-82
2023/12/23 04:00:51;;;;;;;4.20;0.30;;;;;;;;;;5039432;28;20033;-82
2023/12/23 04:03:17;;;;;;;5.20;0.75;;;;;;;;;;5044713;28;20040;-82
2023/12/23 04:05:43;;;;;;;5.05;0.60;;;;;;;;;;5040098;28;20423;-82
2023/12/23 04:08:09;;;;;;;2.53;0.40;;;;;;;;;;5026431;28;20053;-82
2023/12/23 04:10:35;;;;;;;2.00;0.30;;;;;;;;;;5040432;28;20580;-82
2023/12/23 04:13:01;;;;;;;2.50;0.25;;;;;;;;;;5044326;28;20038;-82
2023/12/23 04:15:27;;;;;;;3.30;0.57;;;;;;;;;;5043220;28;20432;-82
2023/12/23 04:17:54;;;;;;;2.63;0.90;;;;;;;;;;5047864;28;20033;-82
2023/12/23 04:20:20;;;;;;;1.65;0.40;;;;;;;;;;5047614;28;20511;-82
2023/12/23 04:22:48;;;;;;;3.92;0.30;;;;;;;;;;5043331;28;20044;-82
2023/12/23 04:25:14;;;;;;;1.80;0.45;;;;;;;;;;5027178;28;20046;-82
2023/12/23 04:27:40;;;;;;;3.00;0.35;;;;;;;;;;5011429;28;20097;-82
2023/12/23 04:30:07;;;;;;;1.27;0.22;;;;;;;;;;5040744;28;20132;-81
2023/12/23 04:32:33;;;;;;;2.90;0.57;;;;;;;;;;5042427;28;20060;-81
2023/12/23 04:34:59;;;;;;;0.82;0.38;;;;;;;;;;5024566;28;20485;-81
2023/12/23 04:37:25;;;;;;;0.25;0.13;;;;;;;;;;5042545;28;20452;-82
2023/12/23 04:39:51;;;;;;;1.30;0.20;;;;;;;;;;5025440;28;20514;-82
2023/12/23 04:42:17;;;;;;;0.52;0.10;;;;;;;;;;5043441;28;20048;-82
2023/12/23 04:44:43;;;;;;;0.45;0.17;;;;;;;;;;5044295;28;20082;-82
2023/12/23 04:47:09;;;;;;;0.52;0.20;;;;;;;;;;5040707;28;20067;-81
2023/12/23 04:49:35;;;;;;;0.10;0.10;;;;;;;;;;5045234;28;20079;-81
2023/12/23 04:52:01;;;;;;;1.38;0.22;;;;;;;;;;5023982;28;20044;-81
2023/12/23 04:54:27;;;;;;;1.45;0.20;;;;;;;;;;5021050;28;20033;-81
2023/12/23 04:56:53;;;;;;;1.67;0.40;;;;;;;;;;5043249;28;20068;-81
2023/12/23 04:59:19;;;;;;;1.02;0.43;;;;;;;;;;5043016;28;20068;-81
2023/12/23 05:01:45;;;;;;;1.05;0.20;;;;;;;;;;5027474;28;20072;-81
2023/12/23 05:04:11;;;;;;;0.82;0.30;;;;;;;;;;5026775;28;20036;-81
2023/12/23 05:06:38;;;;;;;0.35;0.25;;;;;;;;;;5043900;28;20042;-81
2023/12/23 05:09:05;;;;;;;0.20;0.10;;;;;;;;;;5044031;28;20504;-81
2023/12/23 05:11:31;;;;;;;0.20;0.10;;;;;;;;;;5048229;28;20499;-81
2023/12/23 05:13:57;;;;;;;0.22;0.10;;;;;;;;;;5032340;28;20056;-81
2023/12/23 05:16:25;;;;;;;1.15;0.38;;;;;;;;;;5031308;28;20060;-81
2023/12/23 05:18:51;;;;;;;0.20;0.10;;;;;;;;;;5030956;28;20075;-81
2023/12/23 05:21:17;;;;;;;1.30;0.30;;;;;;;;;;5054885;28;20049;-81
2023/12/23 05:23:43;;;;;;;0.63;0.35;;;;;;;;;;5029336;28;20045;-81
2023/12/23 05:26:09;;;;;;;1.92;0.30;;;;;;;;;;5045420;28;20515;-81
2023/12/23 05:28:35;;;;;;;0.55;0.22;;;;;;;;;;5044556;28;20040;-81
2023/12/23 05:31:01;;;;;;;0.73;0.20;;;;;;;;;;5042748;28;20047;-81
2023/12/23 05:33:27;;;;;;;1.70;0.43;;;;;;;;;;5044229;28;20105;-81
2023/12/23 05:35:53;;;;;;;0.40;0.20;;;;;;;;;;5025888;28;20045;-81
2023/12/23 05:38:19;;;;;;;0.93;0.30;;;;;;;;;;5044565;28;20045;-81
2023/12/23 05:40:45;;;;;;;0.20;0.20;;;;;;;;;;5043613;28;20036;-81
2023/12/23 05:43:11;;;;;;;0.35;0.25;;;;;;;;;;5042916;28;20041;-81
2023/12/23 05:45:37;;;;;;;0.38;0.30;;;;;;;;;;5024072;28;20049;-81
2023/12/23 05:48:04;;;;;;;0.73;0.30;;;;;;;;;;5023873;28;20092;-81
2023/12/23 05:50:30;;;;;;;0.40;0.10;;;;;;;;;;5043185;28;20044;-81
2023/12/23 05:52:56;;;;;;;0.65;0.40;;;;;;;;;;5048059;28;20037;-81
2023/12/23 05:55:22;;;;;;;0.95;0.50;;;;;;;;;;5023393;28;20037;-81
2023/12/23 05:57:48;;;;;;;2.65;0.30;;;;;;;;;;5045219;28;20136;-81
2023/12/23 06:00:14;;;;;;;2.58;1.38;;;;;;;;;;5039198;28;20132;-81
2023/12/23 06:02:40;;;;;;;1.33;0.70;;;;;;;;;;5046287;28;20094;-81
2023/12/23 06:05:08;;;;;;;5.15;1.58;;;;;;;;;;5023578;28;20443;-81
2023/12/23 06:07:34;;;;;;;7.55;1.85;;;;;;;;;;5022945;28;20082;-83
2023/12/23 06:10:00;;;;;;;5.28;1.27;;;;;;;;;;5025594;28;20104;-83
2023/12/23 06:12:26;;;;;;;5.43;1.42;;;;;;;;;;5012527;28;20037;-82
2023/12/23 06:14:56;;;;;;;6.22;0.82;;;;;;;;;;5047152;28;20037;-81
2023/12/23 06:17:22;;;;;;;6.93;2.15;;;;;;;;;;5047215;28;20373;-83
2023/12/23 06:19:48;;;;;;;3.85;0.73;;;;;;;;;;5027796;28;20136;-82
2023/12/23 06:22:14;;;;;;;2.05;1.42;;;;;;;;;;5043411;28;20041;-82
2023/12/23 06:24:40;;;;;;;6.22;1.77;;;;;;;;;;5045771;28;20696;-82
2023/12/23 06:27:06;;;;;;;5.57;1.55;;;;;;;;;;5044987;28;20033;-82
2023/12/23 06:29:32;;;;;;;13.40;2.08;;;;;;;;;;5027265;28;20108;-84
2023/12/23 06:31:59;;;;;;;5.93;1.52;;;;;;;;;;5042350;28;20029;-85
2023/12/23 06:34:25;;;;;;;4.80;1.80;;;;;;;;;;5050749;28;20481;-83
2023/12/23 06:36:51;;;;;;;5.78;1.60;;;;;;;;;;5049640;28;20036;-83
2023/12/23 06:39:17;;;;;;;4.22;1.65;;;;;;;;;;5048502;28;20044;-83
2023/12/23 06:41:45;;;;;;;3.28;1.98;;;;;;;;;;5045772;28;20044;-83
2023/12/23 06:44:11;;;;;;;4.40;1.55;;;;;;;;;;5043590;28;20060;-82
2023/12/23 06:46:37;;;;;;;4.50;1.40;;;;;;;;;;5046557;28;20048;-82
2023/12/23 06:49:03;;;;;;;10.38;2.53;;;;;;;;;;5042666;28;20033;-83
2023/12/23 06:51:29;;;;;;;8.93;2.42;;;;;;;;;;5011573;28;20048;-83
2023/12/23 06:53:56;;;;;;;3.33;0.82;;;;;;;;;;5043317;28;20037;-83
2023/12/23 06:56:22;;;;;;;4.30;2.67;;;;;;;;;;5046056;28;20056;-83
2023/12/23 06:58:48;;;;;;;7.18;1.25;;;;;;;;;;5026366;28;20415;-84
2023/12/23 07:01:15;;;;;;;4.97;2.03;;;;;;;;;;5042631;28;20041;-84
2023/12/23 07:03:42;;;;;;;10.38;2.85;;;;;;;;;;5027009;28;20041;-85
2023/12/23 07:06:11;;;;;;;9.23;2.22;;;;;;;;;;5025967;28;20053;-83
2023/12/23 07:08:37;;;;;;;13.23;2.40;;;;;;;;;;5035783;28;20115;-82
2023/12/23 07:11:03;;;;;;;6.93;2.00;;;;;;;;;;5041699;28;20041;-86
2023/12/23 07:13:29;;;;;;;6.82;1.95;;;;;;;;;;5028328;28;20044;-83
2023/12/23 07:15:55;;;;;;;7.57;1.65;;;;;;;;;;5026527;28;20041;-84
2023/12/23 07:18:21;;;;;;;6.65;2.58;;;;;;;;;;5027758;28;20072;-82
2023/12/23 07:20:47;;;;;;;7.30;2.03;;;;;;;;;;5047415;28;20170;-82
2023/12/23 07:23:14;;;;;;;4.75;1.73;;;;;;;;;;5042938;28;20369;-80
2023/12/23 07:25:40;;;;;;;3.47;1.80;;;;;;;;;;5025888;28;20063;-83
2023/12/23 07:28:06;;;;;;;10.23;2.08;;;;;;;;;;5044052;28;20400;-82
2023/12/23 07:30:32;;;;;;;12.30;1.95;;;;;;;;;;5028621;28;20048;-85
2023/12/23 07:32:58;;;;;;;5.63;1.00;;;;;;;;;;5046512;28;20056;-83
2023/12/23 07:35:25;;;;;;;9.35;1.95;;;;;;;;;;5043055;28;20060;-84
2023/12/23 07:37:51;;;;;;;13.45;1.83;;;;;;;;;;5024221;28;20159;-85
2023/12/23 07:40:17;;;;;;;6.22;2.33;;;;;;;;;;5022998;28;20037;-86
2023/12/23 07:42:43;;;;;;;5.80;1.42;;;;;;;;;;5011502;28;20090;-85
2023/12/23 07:45:09;;;;;;;4.15;1.52;;;;;;;;;;5021259;28;20041;-84
2023/12/23 07:47:35;;;;;;;9.32;2.40;;;;;;;;;;5034984;28;20049;-82
2023/12/23 07:50:03;;;;;;;5.93;1.70;;;;;;;;;;5032152;28;20037;-83
2023/12/23 07:52:29;;;;;;;9.32;2.03;;;;;;;;;;5053199;28;20038;-83
2023/12/23 07:54:56;;;;;;;11.13;2.20;;;;;;;;;;5060429;28;20033;-83
2023/12/23 07:57:22;;;;;;;8.57;2.40;;;;;;;;;;5034582;28;20051;-84
2023/12/23 07:59:49;;;;;;;3.58;0.90;;;;;;;;;;5033955;28;20415;-85
2023/12/23 08:02:15;;;;;;;8.90;4.28;;;;;;;;;;5027636;28;20038;-85
2023/12/23 08:04:41;;;;;;;8.73;5.68;;;;;;;;;;5037367;28;20091;-83
2023/12/23 08:07:07;;;;;;;4.97;2.92;;;;;;;;;;5031542;28;20049;-83
2023/12/23 08:09:33;;;;;;;2.53;1.90;;;;;;;;;;5031703;28;20488;-81
2023/12/23 08:11:59;;;;;;;1.77;1.10;;;;;;;;;;5051313;28;20048;-81
2023/12/23 08:14:25;;;;;;;1.95;0.70;;;;;;;;;;5038653;28;20095;-82
2023/12/23 08:16:52;;;;;;;1.67;0.85;;;;;;;;;;5051344;28;20068;-81
2023/12/23 08:19:18;;;;;;;3.17;0.93;;;;;;;;;;5053887;28;20041;-82
2023/12/23 08:21:44;;;;;;;0.52;0.43;;;;;;;;;;5053919;28;20043;-82
2023/12/23 08:24:10;;;;;;;0.60;0.47;;;;;;;;;;5048713;28;20040;-81
2023/12/23 08:26:36;;;;;;;1.75;0.55;;;;;;;;;;5049490;28;20041;-82
2023/12/23 08:29:02;;;;;;;3.53;1.40;;;;;;;;;;5031888;28;20040;-81
2023/12/23 08:31:28;;;;;;;0.40;0.30;;;;;;;;;;5045447;28;20045;-80
2023/12/23 08:33:54;;;;;;;0.30;0.30;;;;;;;;;;5052649;28;20037;-81
2023/12/23 08:36:20;;;;;;;1.00;0.22;;;;;;;;;;5046274;28;20044;-80
2023/12/23 08:38:46;;;;;;;0.15;0.15;;;;;;;;;;5029054;28;20423;-80
2023/12/23 08:41:12;;;;;;;0.38;0.25;;;;;;;;;;5044177;28;20129;-80
2023/12/23 08:43:38;;;;;;;0.47;0.20;;;;;;;;;;5045678;28;20546;-80
2023/12/23 08:46:04;;;;;;;1.13;0.15;;;;;;;;;;5046340;28;20029;-81
2023/12/23 08:48:30;;;;;;;0.10;0.08;;;;;;;;;;5048758;28;20048;-81
2023/12/23 08:50:56;;;;;;;0.20;0.20;;;;;;;;;;5047934;28;20045;-80
2023/12/23 08:53:22;;;;;;;0.20;0.10;;;;;;;;;;5045172;28;20037;-80
2023/12/23 08:55:48;;;;;;;0.30;0.10;;;;;;;;;;5044443;28;20057;-80
2023/12/23 08:58:14;;;;;;;0.47;0.20;;;;;;;;;;5042165;28;20049;-80
2023/12/23 09:00:41;;;;;;;0.10;0.10;;;;;;;;;;5044946;28;20049;-81
2023/12/23 09:03:07;;;;;;;0.20;0.20;;;;;;;;;;5031213;28;20033;-81
2023/12/23 09:05:33;;;;;;;0.15;0.10;;;;;;;;;;5048268;28;20526;-81
2023/12/23 09:07:58;;;;;;;0.85;0.28;;;;;;;;;;5044173;28;20034;-81
2023/12/23 09:10:24;;;;;;;0.17;0.10;;;;;;;;;;5049331;28;20033;-81
2023/12/23 09:12:50;;;;;;;0.45;0.10;;;;;;;;;;5043826;28;20040;-81
2023/12/23 09:15:16;;;;;;;0.10;0.10;;;;;;;;;;5026757;28;20037;-80
2023/12/23 09:17:42;;;;;;;0.00;0.00;;;;;;;;;;5044751;28;20044;-80
2023/12/23 09:20:10;;;;;;;1.60;0.10;;;;;;;;;;5044354;28;20044;-80
2023/12/23 09:22:36;;;;;;;0.00;0.00;;;;;;;;;;5044513;28;20041;-80
2023/12/23 09:25:02;;;;;;;1.55;1.40;;;;;;;;;;5041570;28;20095;-80
2023/12/23 09:27:28;;;;;;;0.60;0.50;;;;;;;;;;5044433;28;20038;-80
2023/12/23 09:29:56;;;;;;;2.47;1.75;;;;;;;;;;5042005;28;20127;-80
2023/12/23 09:32:22;;;;;;;2.58;0.70;;;;;;;;;;5047887;28;20063;-80
2023/12/23 09:34:49;;;;;;;2.40;0.45;;;;;;;;;;5042606;28;20045;-80
2023/12/23 09:37:15;;;;;;;0.40;0.40;;;;;;;;;;5042941;28;20396;-80
2023/12/23 09:39:41;;;;;;;0.63;0.30;;;;;;;;;;5044546;28;20034;-80
2023/12/23 09:42:07;;;;;;;1.30;1.20;;;;;;;;;;5041538;28;20163;-80
2023/12/23 09:44:33;;;;;;;3.78;0.82;;;;;;;;;;5046695;28;20101;-80
2023/12/23 09:46:59;;;;;;;1.60;1.15;;;;;;;;;;5044062;28;20500;-80
2023/12/23 09:49:25;;;;;;;2.58;1.70;;;;;;;;;;5028619;28;20083;-81
2023/12/23 09:51:52;;;;;;;2.63;1.70;;;;;;;;;;5045993;28;20037;-81
2023/12/23 09:54:21;;;;;;;2.55;1.90;;;;;;;;;;5048389;28;20558;-81
2023/12/23 09:56:50;;;;;;;2.78;1.75;;;;;;;;;;5046774;28;20128;-81
2023/12/23 09:59:16;;;;;;;1.73;1.08;;;;;;;;;;5045605;28;20119;-81
2023/12/23 10:01:42;;;;;;;2.25;1.00;;;;;;;;;;5042812;28;20083;-81
2023/12/23 10:04:08;;;;;;;0.52;0.52;;;;;;;;;;5027202;28;20049;-81
2023/12/23 10:06:34;;;;;;;0.40;0.40;;;;;;;;;;5043906;28;20047;-81
2023/12/23 10:09:00;;;;;;;1.15;0.50;;;;;;;;;;5026546;28;20106;-81
2023/12/23 10:11:26;;;;;;;0.60;0.40;;;;;;;;;;5029126;28;20041;-81
2023/12/23 10:13:53;;;;;;;0.38;0.38;;;;;;;;;;5045010;28;20051;-81
2023/12/23 10:16:19;;;;;;;1.83;0.43;;;;;;;;;;5042538;28;20041;-81
2023/12/23 10:18:48;;;;;;;0.85;0.52;;;;;;;;;;5041897;28;21222;-81
2023/12/23 10:21:14;;;;;;;1.33;1.13;;;;;;;;;;5045359;28;20045;-81
2023/12/23 10:23:40;;;;;;;1.73;1.05;;;;;;;;;;5047045;28;20029;-81
2023/12/23 10:26:06;;;;;;;15.40;9.05;;;;;;;;;;5025813;28;20045;-81
2023/12/23 10:28:36;;;;;;;7.60;4.97;;;;;;;;;;5048648;28;20044;-81
2023/12/23 10:31:02;;;;;;;3.00;2.13;;;;;;;;;;5029823;28;20037;-81
2023/12/23 10:33:31;;;;;;;4.32;1.67;;;;;;;;;;5044818;28;20496;-81
2023/12/23 10:35:58;;;;;;;3.28;1.63;;;;;;;;;;5047366;28;20045;-81
2023/12/23 10:38:26;;;;;;;6.00;1.38;;;;;;;;;;5047825;28;20044;-82
2023/12/23 10:41:05;;;;;;;1.90;1.17;;;;;;;;;;5047034;28;20064;-82
2023/12/23 10:43:33;;;;;;;3.75;1.55;;;;;;;;;;5050108;28;20121;-82
2023/12/23 10:45:59;;;;;;;5.88;1.05;;;;;;;;;;5042375;28;20037;-82
2023/12/23 10:48:26;;;;;;;5.15;0.90;;;;;;;;;;5047154;28;20044;-81
2023/12/23 10:50:55;;;;;;;4.85;1.00;;;;;;;;;;5044712;28;20095;-82
2023/12/23 10:53:21;;;;;;;3.50;1.02;;;;;;;;;;5044267;28;20523;-82
2023/12/23 10:55:48;;;;;;;3.88;1.02;;;;;;;;;;5045597;28;20132;-82
2023/12/23 10:58:14;;;;;;;12.43;2.42;;;;;;;;;;5049868;28;20170;-82
2023/12/23 11:00:41;;;;;;;12.25;3.03;;;;;;;;;;5046420;28;20048;-82
2023/12/23 11:03:08;;;;;;;9.02;2.28;;;;;;;;;;5047359;28;20095;-83
2023/12/23 11:05:37;;;;;;;14.18;2.00;;;;;;;;;;5042411;28;20045;-87
2023/12/23 11:08:05;;;;;;;4.18;1.00;;;;;;;;;;5044526;28;20037;-83
2023/12/23 11:10:32;;;;;;;5.93;1.70;;;;;;;;;;5056277;28;20120;-83
2023/12/23 11:13:00;;;;;;;5.70;1.23;;;;;;;;;;5051678;28;20044;-86
2023/12/23 11:15:26;;;;;;;12.63;2.03;;;;;;;;;;5032203;28;20037;-83
2023/12/23 11:17:55;;;;;;;10.10;1.77;;;;;;;;;;5049109;28;20047;-83
2023/12/23 11:20:36;;;;;;;16.75;2.00;;;;;;;;;;5020226;28;20393;-85
2023/12/23 11:23:21;;;;;;;8.18;1.63;;;;;;;;;;5031204;28;20502;-84
2023/12/23 11:25:47;;;;;;;9.63;1.92;;;;;;;;;;5026034;28;20045;-84
2023/12/23 11:28:13;;;;;;;5.38;0.90;;;;;;;;;;5023468;28;20511;-84
2023/12/23 11:30:47;;;;;;;6.80;2.03;;;;;;;;;;5045305;28;20052;-85
2023/12/23 11:33:13;;;;;;;10.20;2.38;;;;;;;;;;5025456;28;20084;-84
2023/12/23 11:35:46;;;;;;;6.45;2.20;;;;;;;;;;5046338;28;20084;-84
2023/12/23 11:38:12;;;;;;;10.48;3.75;;;;;;;;;;5027275;28;20045;-83
2023/12/23 11:40:38;;;;;;;5.57;1.83;;;;;;;;;;5043956;28;20045;-84
2023/12/23 11:43:05;;;;;;;5.00;0.98;;;;;;;;;;5030950;28;20044;-83
2023/12/23 11:45:31;;;;;;;9.48;2.35;;;;;;;;;;5045608;28;20509;-83
2023/12/23 11:47:57;;;;;;;17.35;3.00;;;;;;;;;;5044657;28;20040;-85
2023/12/23 11:50:23;;;;;;;9.40;2.03;;;;;;;;;;5028795;28;20052;-85
2023/12/23 11:52:50;;;;;;;6.40;1.55;;;;;;;;;;5024312;28;20392;-85
2023/12/23 11:55:17;;;;;;;10.48;3.83;;;;;;;;;;5029255;28;20041;-85
2023/12/23 11:57:43;;;;;;;5.53;1.73;;;;;;;;;;5024448;28;20145;-84
2023/12/23 12:00:09;;;;;;;11.48;2.17;;;;;;;;;;5023093;28;20099;-84
2023/12/23 12:02:35;;;;;;;7.70;1.60;;;;;;;;;;5025055;28;20041;-82
2023/12/23 12:05:02;;;;;;;11.00;1.98;;;;;;;;;;5024285;28;20038;-85
2023/12/23 12:07:29;;;;;;;10.55;2.70;;;;;;;;;;5004107;28;20150;-85
2023/12/23 12:09:55;;;;;;;11.77;2.70;;;;;;;;;;5022636;28;20061;-87
2023/12/23 12:12:21;;;;;;;5.47;1.23;;;;;;;;;;5023197;28;20072;-84
2023/12/23 12:14:48;;;;;;;5.47;2.35;;;;;;;;;;5021537;28;20072;-85
2023/12/23 12:17:14;;;;;;;3.95;1.58;;;;;;;;;;5020017;28;20049;-85
2023/12/23 12:19:40;;;;;;;12.65;1.83;;;;;;;;;;5020326;28;20099;-85
2023/12/23 12:22:06;;;;;;;6.15;1.90;;;;;;;;;;5021227;28;20037;-82
2023/12/23 12:24:33;;;;;;;5.53;2.25;;;;;;;;;;5022535;28;20132;-84
2023/12/23 12:26:59;;;;;;;8.05;1.90;;;;;;;;;;5024005;28;20073;-84
2023/12/23 12:29:25;;;;;;;9.70;1.92;;;;;;;;;;5020095;28;20049;-84
2023/12/23 12:31:52;;;;;;;9.13;1.40;;;;;;;;;;5024694;28;20836;-84
2023/12/23 12:34:18;;;;;;;2.97;1.48;;;;;;;;;;5030050;28;20034;-84
2023/12/23 12:36:44;;;;;;;5.90;0.85;;;;;;;;;;5025336;28;20152;-85
2023/12/23 12:39:12;;;;;;;6.50;1.92;;;;;;;;;;5026011;28;20091;-84
2023/12/23 12:41:39;;;;;;;6.97;2.45;;;;;;;;;;5027937;28;20208;-84
2023/12/23 12:44:05;;;;;;;6.90;1.73;;;;;;;;;;5029372;28;20037;-84
2023/12/23 12:46:32;;;;;;;3.33;1.20;;;;;;;;;;5027112;28;20124;-85
2023/12/23 12:48:58;;;;;;;4.78;1.48;;;;;;;;;;5028304;28;20034;-85
2023/12/23 12:51:24;;;;;;;8.27;1.20;;;;;;;;;;5023616;28;20034;-85
2023/12/23 12:53:51;;;;;;;9.20;1.90;;;;;;;;;;5024271;28;20056;-84
2023/12/23 12:56:20;;;;;;;5.32;1.83;;;;;;;;;;5028269;28;20069;-85
2023/12/23 12:58:47;;;;;;;11.80;3.22;;;;;;;;;;5026913;28;20065;-86
2023/12/23 13:01:13;;;;;;;6.97;1.75;;;;;;;;;;5007266;28;20044;-85
2023/12/23 13:03:39;;;;;;;5.30;2.28;;;;;;;;;;5029604;28;20101;-84
2023/12/23 13:06:05;;;;;;;13.75;2.58;;;;;;;;;;5025751;28;20124;-85
2023/12/23 13:08:32;;;;;;;3.72;1.00;;;;;;;;;;5006357;28;20034;-84
2023/12/23 13:10:58;;;;;;;11.18;2.38;;;;;;;;;;5027530;28;20053;-85
2023/12/23 13:13:24;;;;;;;9.15;1.48;;;;;;;;;;5014437;28;20037;-84
2023/12/23 13:15:51;;;;;;;6.15;1.55;;;;;;;;;;5023852;28;20077;-85
2023/12/23 13:18:17;;;;;;;7.63;1.40;;;;;;;;;;5027922;28;20045;-85
2023/12/23 13:20:43;;;;;;;11.30;2.67;;;;;;;;;;5026777;28;20038;-85
2023/12/23 13:23:09;;;;;;;7.22;1.60;;;;;;;;;;5021933;28;20434;-84
2023/12/23 13:25:36;;;;;;;7.18;1.33;;;;;;;;;;5022076;28;20061;-84
2023/12/23 13:28:02;;;;;;;6.22;1.52;;;;;;;;;;5025426;28;20125;-84
2023/12/23 13:30:28;;;;;;;12.40;1.73;;;;;;;;;;5030800;28;20042;-84
2023/12/23 13:32:54;;;;;;;4.43;0.85;;;;;;;;;;5025359;28;20045;-84
2023/12/23 13:35:20;;;;;;;9.40;2.05;;;;;;;;;;5037384;28;20437;-82
2023/12/23 13:37:46;;;;;;;4.47;1.27;;;;;;;;;;5024508;28;20045;-83
2023/12/23 13:40:12;;;;;;;3.97;1.42;;;;;;;;;;5029018;28;20126;-84
2023/12/23 13:42:38;;;;;;;3.13;1.35;;;;;;;;;;5026156;28;20072;-84
2023/12/23 13:45:04;;;;;;;8.43;1.83;;;;;;;;;;5024711;28;20125;-83
2023/12/23 13:47:31;;;;;;;5.70;1.67;;;;;;;;;;5028811;28;20048;-83
2023/12/23 13:49:57;;;;;;;4.65;1.58;;;;;;;;;;5029349;28;20033;-83
2023/12/23 13:52:23;;;;;;;8.02;2.13;;;;;;;;;;5014164;28;20076;-83
2023/12/23 13:54:49;;;;;;;9.45;2.92;;;;;;;;;;5027774;28;20395;-85
2023/12/23 13:57:15;;;;;;;9.27;3.70;;;;;;;;;;5042777;28;20139;-84
2023/12/23 13:59:42;;;;;;;11.98;2.88;;;;;;;;;;5047433;28;20041;-84
2023/12/23 14:02:08;;;;;;;8.00;2.40;;;;;;;;;;5030446;28;20050;-84
2023/12/23 14:04:35;;;;;;;11.13;1.58;;;;;;;;;;5045364;28;20065;-84
2023/12/23 14:07:01;;;;;;;11.65;1.88;;;;;;;;;;5028725;28;20047;-85
2023/12/23 14:09:27;;;;;;;6.80;1.63;;;;;;;;;;5014965;28;20143;-84
2023/12/23 14:11:53;;;;;;;7.60;1.88;;;;;;;;;;5029739;28;20037;-84
2023/12/23 14:14:19;;;;;;;4.18;1.40;;;;;;;;;;5047111;28;20044;-84
2023/12/23 14:16:45;;;;;;;8.93;2.22;;;;;;;;;;5026785;28;20040;-85
2023/12/23 14:19:11;;;;;;;6.55;1.85;;;;;;;;;;5026296;28;20037;-85
2023/12/23 14:21:37;;;;;;;8.32;1.95;;;;;;;;;;5029219;28;20496;-84
2023/12/23 14:24:03;;;;;;;4.90;1.67;;;;;;;;;;5047642;28;20033;-84
2023/12/23 14:26:29;;;;;;;6.50;1.13;;;;;;;;;;5037169;28;20557;-84
2023/12/23 14:28:56;;;;;;;5.07;1.92;;;;;;;;;;5035715;28;20037;-83
2023/12/23 14:31:22;;;;;;;8.10;1.50;;;;;;;;;;5052438;28;20033;-83
2023/12/23 14:33:51;;;;;;;4.30;1.35;;;;;;;;;;5039536;28;20037;-84
2023/12/23 14:36:17;;;;;;;10.82;1.67;;;;;;;;;;5053246;28;20048;-83